Kimball, South Dakota
Current Conditions -  °F | °C
As of 4:15 AM on Saturday 25 Oct 2014 (Local Time) from K9V9 Reporting Station
Clear Clear  
Wind Chill: 39°   Ceiling: Unl
Heat Index: 42°   Visibility: 10mi
Dew Point: 34°   Wind: 5mph
Humidity: 72%   Direction: 320°NW
Pressure: 30.1"   Gusts: NA
Location:  43.75°N, 98.96°W
Report Text: K9V9 250915Z AUTO 32004KT 10SM CLR 06/01 A3010 RMK AO2 T00560010
Loading
Personal Weather Stations






























Interactive Weather Map
Tropical Storm Tracking
New forecast layout! Learn more

10-Day Weather Forecast

Advertisements
Track Severe Weather on mobile